createdAt,value
2022-10-05T04:16:31.606Z,100478.84
2022-10-05T04:19:10.843Z,100479.00
2022-10-05T04:21:55.102Z,100488.66
2022-10-05T04:24:44.561Z,100486.00
2022-10-05T04:27:23.687Z,100491.16
2022-10-05T04:30:11.495Z,100481.50
2022-10-05T04:32:50.444Z,100487.53
2022-10-05T04:35:54.051Z,100492.81
2022-10-05T04:38:40.429Z,100496.09
2022-10-05T04:41:14.214Z,100502.94
2022-10-05T04:44:10.711Z,100502.94
2022-10-05T04:47:09.018Z,100503.03
2022-10-05T04:49:52.571Z,100505.47
2022-10-05T04:52:33.425Z,100506.34
2022-10-05T04:55:24.936Z,100508.13
2022-10-05T04:58:19.610Z,100505.75
2022-10-05T05:01:12.544Z,100507.59
2022-10-05T05:03:57.517Z,100504.16
2022-10-05T05:06:40.796Z,100513.75
2022-10-05T05:09:10.171Z,100511.13
2022-10-05T05:11:58.595Z,100514.47
2022-10-05T05:14:53.431Z,100515.34
2022-10-05T05:17:43.246Z,100519.59
2022-10-05T05:20:55.305Z,100524.84
2022-10-05T05:23:40.558Z,100524.13
2022-10-05T05:26:22.743Z,100531.19
2022-10-05T05:29:31.830Z,100530.66
2022-10-05T05:32:32.072Z,100536.31
2022-10-05T05:35:40.784Z,100534.50
2022-10-05T05:38:18.906Z,100529.19
2022-10-05T05:41:00.552Z,100530.00
2022-10-05T05:43:42.811Z,100544.06
2022-10-05T05:46:17.264Z,100544.91
2022-10-05T05:48:46.700Z,100539.00
2022-10-05T05:51:22.766Z,100540.47
2022-10-05T05:53:54.856Z,100538.59
2022-10-05T05:57:08.994Z,100537.84
2022-10-05T06:00:11.219Z,100538.84
2022-10-05T06:02:58.198Z,100536.91
2022-10-05T06:05:33.600Z,100530.41
2022-10-05T06:08:20.042Z,100530.59
2022-10-05T06:11:20.707Z,100527.59
2022-10-05T06:13:49.303Z,100530.28
2022-10-05T06:17:09.075Z,100530.44
2022-10-05T06:19:38.084Z,100538.56
2022-10-05T06:22:30.020Z,100540.34
2022-10-05T06:25:05.831Z,100538.19
2022-10-05T06:27:38.215Z,100550.13
2022-10-05T06:30:13.505Z,100546.66
2022-10-05T06:33:16.530Z,100533.56
2022-10-05T06:36:22.336Z,100542.03
2022-10-05T06:39:35.624Z,100547.81
2022-10-05T06:42:47.594Z,100544.78
2022-10-05T06:46:10.390Z,100539.69
2022-10-05T06:49:01.645Z,100535.19
2022-10-05T06:52:24.287Z,100540.75
2022-10-05T06:55:13.889Z,100543.13
2022-10-05T06:58:13.300Z,100544.78
2022-10-05T07:00:52.719Z,100538.59
2022-10-05T07:03:23.409Z,100546.13
2022-10-05T07:06:11.617Z,100545.03
2022-10-05T07:09:26.680Z,100542.84
2022-10-05T07:12:24.610Z,100547.78
2022-10-05T07:15:34.176Z,100548.22
2022-10-05T07:18:34.662Z,100553.53
2022-10-05T07:21:07.220Z,100548.16
2022-10-05T07:23:58.511Z,100544.75
2022-10-05T07:26:40.961Z,100553.28
2022-10-05T07:29:07.488Z,100559.03
2022-10-05T07:32:11.639Z,100553.94
2022-10-05T07:35:09.407Z,100551.47
2022-10-05T07:37:55.057Z,100547.25
2022-10-05T07:40:31.734Z,100552.69
2022-10-05T07:44:01.028Z,100549.84
2022-10-05T07:46:40.214Z,100549.97
2022-10-05T07:49:38.540Z,100549.50
2022-10-05T07:52:24.011Z,100552.94
2022-10-05T07:55:19.268Z,100552.94
2022-10-05T07:58:03.188Z,100558.31
2022-10-05T08:00:48.826Z,100555.03
2022-10-05T08:03:54.450Z,100561.09
2022-10-05T08:07:05.144Z,100552.72
2022-10-05T08:14:06.131Z,100549.97
2022-10-05T08:17:25.710Z,100562.72
2022-10-05T08:20:29.661Z,100555.97
2022-10-05T08:23:21.062Z,100560.09
2022-10-05T08:25:51.512Z,100558.94
2022-10-05T08:28:28.487Z,100548.66
2022-10-05T08:31:45.701Z,100547.19
2022-10-05T08:34:41.007Z,100545.78
2022-10-05T08:37:28.184Z,100544.00
2022-10-05T08:40:14.244Z,100543.59
2022-10-05T08:43:48.189Z,100548.00
2022-10-05T08:46:56.296Z,100549.63
2022-10-05T08:49:40.870Z,100550.38
2022-10-05T08:52:29.206Z,100540.94
2022-10-05T08:55:11.843Z,100545.72
2022-10-05T08:58:16.993Z,100539.13
2022-10-05T09:01:05.007Z,100542.41
2022-10-05T09:03:48.370Z,100549.53
2022-10-05T09:06:51.035Z,100541.28
2022-10-05T09:09:48.675Z,100549.91
2022-10-05T09:12:18.117Z,100540.97
2022-10-05T09:15:25.333Z,100542.19
2022-10-05T09:18:18.578Z,100537.00
2022-10-05T09:20:55.617Z,100540.59
2022-10-05T09:24:15.340Z,100546.78
2022-10-05T09:27:12.805Z,100547.56
2022-10-05T09:30:05.193Z,100547.66
2022-10-05T09:33:16.729Z,100540.38
2022-10-05T09:36:12.355Z,100543.16
2022-10-05T09:39:17.547Z,100546.81
2022-10-05T09:41:50.638Z,100546.00
2022-10-05T09:44:54.953Z,100542.63
2022-10-05T09:48:11.115Z,100544.34
2022-10-05T09:51:00.830Z,100536.13
2022-10-05T09:53:48.813Z,100525.72
2022-10-05T09:59:38.446Z,100513.22
2022-10-05T10:02:30.735Z,100518.59
2022-10-05T10:05:20.080Z,100511.06
2022-10-05T10:08:10.048Z,100515.97
2022-10-05T10:11:25.492Z,100507.63
2022-10-05T10:14:14.306Z,100509.53
2022-10-05T10:17:03.738Z,100503.47
2022-10-05T10:19:57.913Z,100498.91
2022-10-05T10:22:43.351Z,100496.38
2022-10-05T10:26:20.234Z,100505.63
2022-10-05T10:29:39.637Z,100508.94
2022-10-05T10:32:48.259Z,100514.59
2022-10-05T10:35:34.973Z,100509.75
2022-10-05T10:38:20.397Z,100509.19
2022-10-05T10:40:52.789Z,100508.34
2022-10-05T10:43:40.933Z,100511.53
2022-10-05T10:46:26.482Z,100515.50
2022-10-05T10:49:06.594Z,100514.06
2022-10-05T10:51:45.298Z,100503.63
2022-10-05T10:54:37.479Z,100502.53
2022-10-05T10:57:10.167Z,100495.72
2022-10-05T11:00:22.904Z,100496.72
2022-10-05T11:03:08.379Z,100493.91
2022-10-05T11:05:53.950Z,100479.41
2022-10-05T11:08:41.676Z,100483.19
2022-10-05T11:11:54.463Z,100479.75
2022-10-05T11:14:47.692Z,100478.19
2022-10-05T11:17:31.624Z,100473.44
2022-10-05T11:20:22.068Z,100472.88
2022-10-05T11:22:51.635Z,100475.72
2022-10-05T11:25:46.579Z,100471.44
2022-10-05T11:28:52.827Z,100464.19
2022-10-05T11:31:57.732Z,100462.72
2022-10-05T11:34:38.416Z,100452.25
2022-10-05T11:37:31.691Z,100452.63
2022-10-05T11:40:27.182Z,100450.28
2022-10-05T11:42:56.634Z,100443.19
2022-10-05T11:45:41.853Z,100441.75
2022-10-05T11:48:23.043Z,100445.88
2022-10-05T11:51:03.610Z,100444.03
2022-10-05T11:53:42.970Z,100445.06
2022-10-05T11:56:25.685Z,100440.78
2022-10-05T11:59:30.536Z,100436.78
2022-10-05T12:02:23.244Z,100431.97
2022-10-05T12:05:13.161Z,100421.97
2022-10-05T12:08:03.915Z,100422.75
2022-10-05T12:10:55.661Z,100416.22
2022-10-05T12:13:46.390Z,100401.41
2022-10-05T12:16:22.614Z,100404.78
2022-10-05T12:19:06.617Z,100401.34
2022-10-05T12:21:49.971Z,100393.63
2022-10-05T12:24:31.461Z,100386.13
2022-10-05T12:27:19.583Z,100389.19
2022-10-05T12:29:54.230Z,100384.00
2022-10-05T12:32:26.395Z,100406.63
2022-10-05T12:35:03.153Z,100404.19
2022-10-05T12:37:54.051Z,100389.56
2022-10-05T12:40:28.622Z,100391.25
2022-10-05T12:43:20.908Z,100385.19
2022-10-05T12:45:59.443Z,100373.97
2022-10-05T12:48:47.118Z,100388.00
2022-10-05T12:51:20.035Z,100381.84
2022-10-05T12:54:01.271Z,100374.09
2022-10-05T12:57:04.379Z,100376.69
2022-10-05T13:00:08.356Z,100368.25
2022-10-05T13:02:42.254Z,100384.34
2022-10-05T13:05:08.785Z,100372.53
2022-10-05T13:08:05.727Z,100376.97
2022-10-05T13:10:46.808Z,100364.34
2022-10-05T13:13:25.656Z,100372.53
2022-10-05T13:16:04.259Z,100356.78
2022-10-05T13:19:12.502Z,100371.31
2022-10-05T13:21:45.937Z,100350.56
2022-10-05T13:24:22.184Z,100364.81
2022-10-05T13:27:03.873Z,100353.25
2022-10-05T13:29:55.601Z,100347.75
2022-10-05T13:32:47.855Z,100353.69
2022-10-05T13:35:44.362Z,100344.88
2022-10-05T13:38:53.829Z,100352.94
2022-10-05T13:41:32.802Z,100345.81
2022-10-05T13:44:24.256Z,100335.06
2022-10-05T13:47:01.011Z,100334.00
2022-10-05T13:49:50.599Z,100331.13
2022-10-05T13:52:37.050Z,100346.78
2022-10-05T13:55:30.779Z,100332.34
2022-10-05T13:58:05.903Z,100333.50
2022-10-05T14:00:40.686Z,100355.22
2022-10-05T14:03:24.046Z,100329.88
2022-10-05T14:06:03.633Z,100336.78
2022-10-05T14:08:35.935Z,100325.13
2022-10-05T14:11:23.296Z,100323.75
2022-10-05T14:13:50.096Z,100337.09
2022-10-05T14:16:23.811Z,100317.63
2022-10-05T14:19:06.293Z,100311.72
2022-10-05T14:22:11.523Z,100323.78
2022-10-05T14:24:49.717Z,100317.31
2022-10-05T14:27:54.731Z,100317.50
2022-10-05T14:30:25.749Z,100317.63
2022-10-05T14:33:03.460Z,100302.47
2022-10-05T14:35:44.462Z,100315.44
2022-10-05T14:38:26.299Z,100301.19
2022-10-05T14:41:06.067Z,100299.53
2022-10-05T14:43:34.126Z,100288.09
2022-10-05T14:46:25.389Z,100291.16
2022-10-05T14:49:20.994Z,100279.75
2022-10-05T14:51:49.063Z,100281.16
2022-10-05T14:54:25.124Z,100289.72
2022-10-05T14:57:05.280Z,100283.44
2022-10-05T14:59:31.684Z,100284.06
2022-10-05T15:02:18.906Z,100280.00
2022-10-05T15:05:01.744Z,100270.50
2022-10-05T15:07:36.061Z,100259.88
2022-10-05T15:10:30.393Z,100264.25
2022-10-05T15:13:08.054Z,100257.47
2022-10-05T15:15:44.716Z,100263.47
2022-10-05T15:18:36.329Z,100246.22
2022-10-05T15:21:28.478Z,100256.41
2022-10-05T15:24:09.325Z,100242.56
2022-10-05T15:26:53.306Z,100241.84
2022-10-05T15:29:38.536Z,100242.09
2022-10-05T15:32:24.057Z,100241.94
2022-10-05T15:35:28.791Z,100242.25
2022-10-05T15:38:20.888Z,100238.03
2022-10-05T15:41:09.465Z,100234.13
2022-10-05T15:44:29.318Z,100237.53
2022-10-05T15:47:03.944Z,100244.13
2022-10-05T15:49:46.841Z,100239.78
2022-10-05T15:52:24.156Z,100234.00
2022-10-05T15:55:04.908Z,100236.97
2022-10-05T15:57:56.252Z,100241.53
2022-10-05T16:00:25.344Z,100235.69
2022-10-05T16:03:13.927Z,100238.50
2022-10-05T16:06:27.243Z,100232.47
2022-10-05T16:09:09.153Z,100234.00
2022-10-05T16:12:00.188Z,100233.34
2022-10-05T16:15:11.778Z,100228.09
2022-10-05T16:18:03.044Z,100231.81
2022-10-05T16:20:35.808Z,100234.50
2022-10-05T16:23:13.569Z,100240.28
2022-10-05T16:26:09.328Z,100239.16
2022-10-05T16:28:49.819Z,100245.50
2022-10-05T16:31:26.422Z,100248.13
2022-10-05T16:34:01.002Z,100245.31
2022-10-05T16:36:50.343Z,100250.50
2022-10-05T16:39:35.217Z,100250.44
2022-10-05T16:46:03.162Z,100254.63
2022-10-05T16:48:39.933Z,100253.47
2022-10-05T16:51:21.652Z,100263.13
2022-10-05T16:54:11.632Z,100261.31
2022-10-05T16:57:12.484Z,100267.00
2022-10-05T16:59:57.426Z,100268.75
2022-10-05T17:02:39.056Z,100274.25
2022-10-05T17:05:24.086Z,100273.66
2022-10-05T17:08:11.925Z,100273.19
2022-10-05T17:10:57.314Z,100284.66
2022-10-05T17:13:44.897Z,100274.81
2022-10-05T17:16:37.590Z,100285.25
2022-10-05T17:19:36.381Z,100282.38
2022-10-05T17:22:32.302Z,100281.34
2022-10-05T17:25:10.206Z,100297.31
2022-10-05T17:27:56.500Z,100305.06
2022-10-05T17:30:36.112Z,100310.25
2022-10-05T17:33:14.201Z,100316.97
2022-10-05T17:35:58.187Z,100320.16
2022-10-05T17:38:30.648Z,100326.06
2022-10-05T17:41:19.046Z,100334.34
2022-10-05T17:44:15.988Z,100333.00
2022-10-05T17:46:51.888Z,100339.72
2022-10-05T17:49:39.396Z,100345.63
2022-10-05T17:52:44.815Z,100351.91
2022-10-05T17:55:45.598Z,100362.66
2022-10-05T17:59:16.321Z,100367.69
2022-10-05T18:02:03.632Z,100374.81
2022-10-05T18:05:00.596Z,100369.81
2022-10-05T18:07:27.601Z,100371.13
2022-10-05T18:09:58.644Z,100374.75
2022-10-05T18:12:47.176Z,100373.31
2022-10-05T18:15:23.067Z,100372.34
2022-10-05T18:17:51.232Z,100377.00
2022-10-05T18:20:27.001Z,100379.19
2022-10-05T18:23:10.819Z,100381.91
2022-10-05T18:25:44.430Z,100383.22
2022-10-05T18:28:22.635Z,100385.41
2022-10-05T18:31:22.066Z,100395.00
2022-10-05T18:34:30.455Z,100393.94
2022-10-05T18:37:41.821Z,100394.13
2022-10-05T18:40:45.882Z,100395.69
2022-10-05T18:43:29.034Z,100395.97
2022-10-05T18:46:28.159Z,100402.50
2022-10-05T18:49:47.478Z,100407.44
2022-10-05T18:52:55.093Z,100407.22
2022-10-05T18:55:26.671Z,100411.75
2022-10-05T18:58:31.225Z,100422.19
2022-10-05T19:01:18.870Z,100424.53
2022-10-05T19:04:48.358Z,100428.09
2022-10-05T19:07:25.420Z,100439.75
2022-10-05T19:09:57.553Z,100437.75
2022-10-05T19:12:50.652Z,100446.66
2022-10-05T19:15:41.021Z,100443.31
2022-10-05T19:22:34.874Z,100451.47
2022-10-05T19:25:47.460Z,100464.97
2022-10-05T19:28:18.363Z,100468.78
2022-10-05T19:30:47.909Z,100471.56
2022-10-05T19:33:38.775Z,100466.47
2022-10-05T19:36:35.437Z,100471.88
2022-10-05T19:39:23.634Z,100473.41
2022-10-05T19:42:05.788Z,100478.19
2022-10-05T19:45:05.001Z,100476.63
2022-10-05T19:47:44.679Z,100486.44
2022-10-05T19:50:23.471Z,100492.41
2022-10-05T19:53:11.317Z,100495.88
2022-10-05T19:55:39.552Z,100489.94
2022-10-05T19:58:17.064Z,100498.66
2022-10-05T20:00:45.755Z,100496.72
2022-10-05T20:03:19.353Z,100495.56
2022-10-05T20:05:45.956Z,100491.19
2022-10-05T20:08:17.835Z,100506.13
2022-10-05T20:10:46.352Z,100511.50
2022-10-05T20:13:22.929Z,100514.06
2022-10-05T20:16:45.742Z,100512.59
2022-10-05T20:19:56.096Z,100521.19
2022-10-05T20:22:30.861Z,100525.13
2022-10-05T20:25:28.836Z,100521.63
2022-10-05T20:27:56.754Z,100532.81
2022-10-05T20:30:27.852Z,100535.53
2022-10-05T20:32:59.528Z,100542.84
2022-10-05T20:35:30.363Z,100547.00
2022-10-05T20:38:00.901Z,100551.88
2022-10-05T20:40:29.247Z,100553.69
2022-10-05T20:42:56.857Z,100549.75
2022-10-05T20:45:23.654Z,100564.38
2022-10-05T20:47:50.726Z,100563.19
2022-10-05T20:50:17.768Z,100567.25
2022-10-05T20:52:44.434Z,100567.91
2022-10-05T20:55:11.927Z,100568.34
2022-10-05T20:57:41.826Z,100571.34
2022-10-05T21:00:11.075Z,100570.81
2022-10-05T21:02:39.364Z,100571.69
2022-10-05T21:05:07.525Z,100576.56
2022-10-05T21:07:34.303Z,100574.22
2022-10-05T21:10:01.239Z,100572.91
2022-10-05T21:12:27.816Z,100570.88
2022-10-05T21:14:54.418Z,100576.41
2022-10-05T21:17:20.916Z,100573.59
2022-10-05T21:19:47.443Z,100584.41
2022-10-05T21:22:13.991Z,100589.75
2022-10-05T21:24:41.375Z,100593.78
2022-10-05T21:27:09.540Z,100600.13
2022-10-05T21:29:36.961Z,100587.72
2022-10-05T21:32:08.293Z,100597.56
2022-10-05T21:34:35.131Z,100592.81
2022-10-05T21:37:01.702Z,100586.34
2022-10-05T21:39:28.271Z,100586.88
2022-10-05T21:41:54.783Z,100585.75
2022-10-05T21:44:21.259Z,100590.38
2022-10-05T21:46:48.469Z,100596.09
2022-10-05T21:49:18.888Z,100590.38
2022-10-05T21:51:47.174Z,100602.31
2022-10-05T21:54:20.996Z,100601.44
2022-10-05T21:56:52.278Z,100608.00
2022-10-05T21:59:22.302Z,100612.31
